Time;durP1;ratioP1;P1;durP2;ratioP2;P2;SDS_P1;SDS_P2;PMS_P1;PMS_P2;Temp;Humidity;BMP_temperature;BMP_pressure;BME280_temperature;BME280_humidity;BME280_pressure;Samples;Min_cycle;Max_cycle;Signal;HPM_P1;HPM_P2
2022/01/23 00:02:15;;;;;;;;;77.20;55.80;15.80;99.90;;;;;;5014995;28;8774;-65
2022/01/23 00:04:42;;;;;;;;;78.00;55.60;15.90;99.90;;;;;;5037868;28;8824;-65
2022/01/23 00:07:09;;;;;;;;;79.40;62.20;16.00;99.90;;;;;;5038000;28;8766;-65
2022/01/23 00:09:37;;;;;;;;;93.80;80.40;16.00;99.90;;;;;;5037298;28;8766;-65
2022/01/23 00:12:09;;;;;;;;;98.00;84.80;15.90;99.90;;;;;;5038725;28;8935;-65
2022/01/23 00:17:20;;;;;;;;;83.80;72.40;15.90;99.90;;;;;;5029974;28;8892;-65
2022/01/23 00:19:57;;;;;;;;;79.60;59.00;15.90;99.90;;;;;;5037188;28;8761;-65
2022/01/23 00:22:33;;;;;;;;;80.00;62.40;15.90;99.90;;;;;;5037278;28;8751;-65
2022/01/23 00:30:31;;;;;;;;;81.80;62.20;15.90;99.90;;;;;;5038015;28;8759;-65
2022/01/23 00:33:03;;;;;;;;;76.60;59.80;16.00;99.90;;;;;;5036936;28;8841;-65
2022/01/23 00:35:30;;;;;;;;;73.40;55.00;16.10;99.90;;;;;;5031643;28;9011;-65
2022/01/23 00:37:57;;;;;;;;;77.00;59.00;16.10;99.90;;;;;;5018140;28;8780;-65
2022/01/23 00:40:24;;;;;;;;;77.80;58.60;16.10;99.90;;;;;;5017407;28;8830;-65
2022/01/23 00:42:53;;;;;;;;;65.60;53.60;16.10;99.90;;;;;;5017563;28;8763;-65
2022/01/23 00:45:34;;;;;;;;;68.75;53.25;16.10;99.90;;;;;;5018133;28;8806;-65
2022/01/23 00:48:04;;;;;;;;;73.60;55.00;16.10;99.90;;;;;;5018226;28;8815;-65
2022/01/23 00:50:39;;;;;;;;;77.40;59.80;16.10;99.90;;;;;;5007192;28;9168;-65
2022/01/23 00:53:10;;;;;;;;;74.20;55.20;16.20;99.90;;;;;;5019922;28;8769;-65
2022/01/23 00:55:41;;;;;;;;;75.80;58.00;16.10;99.90;;;;;;5037655;28;8843;-66
2022/01/23 00:58:08;;;;;;;;;77.60;56.80;16.20;99.90;;;;;;5021441;28;8839;-66
2022/01/23 01:00:35;;;;;;;;;78.40;58.20;16.30;99.90;;;;;;5052849;28;8796;-65
2022/01/23 01:03:02;;;;;;;;;60.00;47.40;16.40;99.90;;;;;;5037969;28;8884;-65
2022/01/23 01:05:29;;;;;;;;;70.25;55.50;16.50;99.90;;;;;;5031856;28;8887;-66
2022/01/23 01:07:56;;;;;;;;;69.50;52.25;16.60;99.90;;;;;;5016744;28;8768;-66
2022/01/23 01:10:29;;;;;;;;;66.00;46.50;16.80;99.90;;;;;;5018014;28;9358;-65
2022/01/23 01:12:59;;;;;;;;;62.25;47.50;16.90;99.90;;;;;;5016793;28;8809;-66
2022/01/23 01:15:35;;;;;;;;;61.00;48.50;17.00;99.90;;;;;;5016287;28;8793;-65
2022/01/23 01:32:07;;;;;;;;;62.25;46.75;17.50;99.90;;;;;;5036370;28;8750;-65
2022/01/23 01:37:01;;;;;;;;;61.75;47.50;17.80;99.90;;;;;;5019395;28;8781;-66
2022/01/23 01:39:28;;;;;;;;;59.75;48.00;17.80;99.90;;;;;;5017450;28;8765;-65
2022/01/23 01:41:55;;;;;;;;;56.75;43.25;17.90;99.90;;;;;;5016115;28;8760;-65
2022/01/23 01:44:22;;;;;;;;;57.75;46.00;18.00;99.90;;;;;;5015792;28;8785;-66
2022/01/23 01:46:50;;;;;;;;;54.25;44.25;18.10;99.90;;;;;;5017209;28;8764;-65
2022/01/23 01:49:26;;;;;;;;;55.75;43.00;18.10;99.90;;;;;;5017777;28;8825;-65
2022/01/23 01:51:54;;;;;;;;;59.00;45.25;18.10;99.90;;;;;;5034833;28;8868;-66
2022/01/23 01:54:23;;;;;;;;;58.50;45.25;18.30;99.90;;;;;;5036257;28;8824;-65
2022/01/23 01:56:52;;;;;;;;;55.75;45.25;18.40;99.90;;;;;;5035783;28;9105;-66
2022/01/23 01:59:44;;;;;;;;;51.75;42.75;18.40;99.90;;;;;;5035079;28;9435;-65
2022/01/23 02:10:06;;;;;;;;;47.75;37.75;18.80;99.90;;;;;;5017150;28;8737;-66
2022/01/23 02:18:00;;;;;;;;;48.00;35.00;19.00;99.90;;;;;;5016944;28;8773;-66
2022/01/23 02:50:53;;;;;;;;;25.00;24.00;20.20;99.90;;;;;;5032813;28;8796;-65
2022/01/23 02:53:38;;;;;;;;;22.75;19.75;20.20;99.90;;;;;;5019244;28;8801;-65
2022/01/23 02:56:12;;;;;;;;;23.75;20.00;20.40;99.90;;;;;;5005583;28;8768;-65
2022/01/23 02:58:55;;;;;;;;;27.50;24.25;20.30;99.90;;;;;;5020463;28;8765;-66
2022/01/23 03:01:24;;;;;;;;;30.75;26.50;20.40;99.90;;;;;;5019819;28;8745;-65
2022/01/23 03:03:57;;;;;;;;;26.50;22.75;20.40;99.90;;;;;;5020656;28;8788;-65
2022/01/23 03:06:50;;;;;;;;;32.50;27.75;20.60;99.90;;;;;;5032960;28;8794;-65
2022/01/23 03:14:21;;;;;;;;;31.50;25.75;20.80;99.90;;;;;;5038460;28;8786;-66
2022/01/23 03:30:24;;;;;;;;;23.00;20.25;21.40;99.90;;;;;;5005314;28;8800;-65
2022/01/23 03:32:52;;;;;;;;;29.50;26.25;21.50;99.90;;;;;;5020030;28;8772;-66
2022/01/23 03:35:20;;;;;;;;;24.75;22.75;21.40;99.90;;;;;;5019517;28;8793;-66
2022/01/23 03:37:48;;;;;;;;;19.50;17.75;21.40;99.90;;;;;;5019777;28;8771;-65
2022/01/23 03:40:15;;;;;;;;;26.00;22.25;21.50;99.90;;;;;;5018745;28;8737;-66
2022/01/23 03:42:44;;;;;;;;;25.00;21.50;21.60;99.90;;;;;;5019880;28;9134;-66
2022/01/23 03:49:31;;;;;;;;;24.00;20.50;21.70;99.90;;;;;;5019840;28;9453;-66
2022/01/23 03:50:48;;;;;;;;;23.75;21.50;21.70;99.90;;;;;;5018582;28;8788;-66
2022/01/23 03:53:15;;;;;;;;;26.50;23.75;21.80;99.90;;;;;;5019487;28;8753;-66
2022/01/23 03:55:42;;;;;;;;;24.75;21.50;22.00;99.90;;;;;;5019157;28;9398;-66
2022/01/23 03:58:08;;;;;;;;;26.00;23.75;22.20;99.90;;;;;;5018048;28;8732;-66
2022/01/23 04:00:35;;;;;;;;;24.25;22.75;22.30;99.90;;;;;;5019368;28;8757;-66
2022/01/23 04:03:02;;;;;;;;;22.00;22.00;22.40;99.90;;;;;;5019736;28;8803;-66
2022/01/23 04:05:28;;;;;;;;;16.25;14.25;22.50;99.90;;;;;;5019470;28;8745;-66
2022/01/23 04:07:55;;;;;;;;;28.00;24.00;22.50;99.90;;;;;;5019456;28;8772;-65
2022/01/23 04:10:23;;;;;;;;;40.00;31.25;22.60;99.90;;;;;;5019784;28;8764;-65
2022/01/23 04:13:44;;;;;;;;;30.75;22.50;22.60;99.90;;;;;;5018222;28;8732;-64
2022/01/23 04:32:41;;;;;;;;;28.25;25.50;23.20;99.90;;;;;;5002405;28;8786;-64
2022/01/23 04:45:50;;;;;;;;;33.50;25.25;23.60;99.90;;;;;;5018763;28;8772;-65
2022/01/23 04:48:54;;;;;;;;;28.50;26.75;23.80;99.90;;;;;;5018736;28;8760;-65
2022/01/23 04:59:35;;;;;;;;;32.50;26.50;23.80;99.90;;;;;;5038141;28;8758;-65
2022/01/23 05:04:34;;;;;;;;;25.25;24.75;24.00;99.90;;;;;;5038023;28;8753;-64
2022/01/23 05:07:07;;;;;;;;;25.50;22.25;24.00;99.90;;;;;;5019919;28;8764;-65
2022/01/23 05:09:34;;;;;;;;;26.25;21.50;24.20;98.90;;;;;;5016931;28;8753;-65
2022/01/23 05:12:05;;;;;;;;;23.40;22.20;24.30;98.30;;;;;;5017906;28;8865;-65
2022/01/23 05:14:35;;;;;;;;;25.25;22.25;24.40;97.50;;;;;;5017492;28;8768;-65
2022/01/23 05:17:03;;;;;;;;;30.25;23.75;24.50;96.30;;;;;;5018002;28;8769;-64
2022/01/23 05:19:29;;;;;;;;;18.00;14.50;24.60;96.10;;;;;;5017859;28;8741;-65
2022/01/23 05:24:32;;;;;;;;;19.25;15.00;24.80;92.40;;;;;;5037214;28;9435;-65
2022/01/23 05:26:59;;;;;;;;;20.00;17.75;24.90;91.30;;;;;;5036440;28;8794;-65
2022/01/23 05:29:26;;;;;;;;;21.25;18.00;24.90;91.80;;;;;;5037463;28;8785;-65
2022/01/23 05:31:53;;;;;;;;;20.50;20.00;24.90;92.70;;;;;;5037512;28;8742;-65
2022/01/23 05:34:22;;;;;;;;;21.25;20.00;25.00;91.40;;;;;;5037872;28;8832;-64
2022/01/23 05:36:49;;;;;;;;;19.40;19.00;25.10;90.20;;;;;;5021008;28;8791;-65
2022/01/23 05:39:21;;;;;;;;;26.80;20.00;25.00;92.60;;;;;;5017789;28;8772;-64
2022/01/23 05:41:53;;;;;;;;;23.75;23.75;25.00;92.30;;;;;;5017570;28;8769;-64
2022/01/23 05:44:20;;;;;;;;;21.25;19.25;25.00;93.10;;;;;;5017327;28;8764;-64
2022/01/23 05:46:50;;;;;;;;;17.60;13.80;25.10;92.70;;;;;;5000061;28;9382;-64
2022/01/23 05:49:17;;;;;;;;;20.80;19.60;25.10;92.30;;;;;;5017968;28;8764;-64
2022/01/23 05:51:44;;;;;;;;;20.25;17.75;25.30;91.60;;;;;;5031827;28;8975;-64
2022/01/23 05:54:10;;;;;;;;;24.25;22.50;25.30;91.40;;;;;;5019499;28;8893;-65
2022/01/23 05:56:37;;;;;;;;;23.25;21.50;25.30;91.80;;;;;;5036302;28;8778;-65
2022/01/23 05:59:04;;;;;;;;;27.75;25.50;25.40;91.60;;;;;;5036407;28;8765;-65
2022/01/23 06:01:30;;;;;;;;;27.25;24.75;25.50;92.40;;;;;;5037520;28;8742;-64
2022/01/23 06:03:57;;;;;;;;;27.50;27.25;25.60;91.90;;;;;;5037909;28;8753;-65
2022/01/23 06:06:23;;;;;;;;;36.00;30.25;25.70;92.80;;;;;;5023692;28;8855;-65
2022/01/23 06:08:50;;;;;;;;;24.25;22.75;25.70;92.90;;;;;;5016930;28;8769;-65
2022/01/23 06:11:17;;;;;;;;;25.00;20.75;25.80;92.20;;;;;;5017019;28;8785;-64
2022/01/23 06:13:43;;;;;;;;;23.00;21.50;25.90;91.60;;;;;;5016090;28;8824;-65
2022/01/23 06:16:10;;;;;;;;;27.50;24.00;25.80;92.20;;;;;;5017641;28;8740;-65
2022/01/23 06:18:39;;;;;;;;;28.50;21.00;26.00;90.50;;;;;;5016432;28;8765;-64
2022/01/23 06:21:07;;;;;;;;;29.25;24.75;26.00;90.10;;;;;;5026812;28;8786;-65
2022/01/23 06:23:33;;;;;;;;;11.75;10.00;26.00;90.00;;;;;;5036692;28;8754;-64
2022/01/23 06:26:00;;;;;;;;;23.50;22.50;26.10;87.10;;;;;;5036820;28;9551;-64
2022/01/23 06:28:29;;;;;;;;;22.00;14.75;26.10;87.80;;;;;;5035029;28;8746;-64
2022/01/23 06:30:56;;;;;;;;;16.20;14.60;26.10;86.40;;;;;;5037420;28;8856;-64
2022/01/23 06:33:23;;;;;;;;;23.00;19.00;26.20;85.40;;;;;;5036026;28;8761;-64
2022/01/23 06:35:50;;;;;;;;;18.00;14.60;26.20;83.20;;;;;;5028538;28;8789;-64
2022/01/23 06:38:16;;;;;;;;;23.40;19.20;26.30;81.80;;;;;;5015829;28;8760;-64
2022/01/23 06:40:43;;;;;;;;;19.80;14.80;26.30;81.40;;;;;;5016988;28;8733;-64
2022/01/23 06:43:09;;;;;;;;;18.75;16.25;26.30;79.70;;;;;;5018075;28;8748;-64
2022/01/23 06:45:36;;;;;;;;;19.50;17.25;26.40;79.60;;;;;;5016576;28;8736;-64
2022/01/23 06:48:03;;;;;;;;;16.00;13.75;26.40;78.30;;;;;;4999875;28;8764;-64
2022/01/23 06:50:30;;;;;;;;;21.00;18.50;26.40;79.60;;;;;;5022353;28;8758;-64
2022/01/23 06:52:56;;;;;;;;;18.75;15.00;26.50;77.40;;;;;;5036614;28;8754;-64
2022/01/23 06:55:23;;;;;;;;;20.00;19.00;26.50;80.50;;;;;;5034979;28;9391;-64
2022/01/23 06:57:50;;;;;;;;;19.25;16.75;26.50;79.50;;;;;;5036885;28;8722;-64
2022/01/23 07:00:17;;;;;;;;;20.00;18.40;26.50;79.10;;;;;;5036462;28;8734;-64
2022/01/23 07:02:43;;;;;;;;;20.40;16.00;26.60;77.30;;;;;;5036807;28;8734;-64
2022/01/23 07:05:10;;;;;;;;;14.75;12.00;26.60;79.20;;;;;;5033224;28;8820;-64
2022/01/23 07:07:37;;;;;;;;;21.00;17.50;26.60;76.40;;;;;;5016583;28;8800;-64
2022/01/23 07:10:03;;;;;;;;;20.50;17.50;26.60;76.50;;;;;;5017084;28;8838;-64
2022/01/23 07:12:30;;;;;;;;;18.00;17.00;26.70;76.00;;;;;;5016199;28;9424;-64
2022/01/23 07:14:57;;;;;;;;;19.00;16.00;26.70;74.30;;;;;;5016327;28;8769;-64
2022/01/23 07:17:26;;;;;;;;;16.50;15.25;26.70;76.30;;;;;;5015298;28;8772;-64
2022/01/23 07:19:53;;;;;;;;;22.00;19.25;26.80;75.70;;;;;;5017218;28;8830;-64
2022/01/23 07:22:20;;;;;;;;;15.00;14.50;26.90;75.30;;;;;;5025423;28;8770;-64
2022/01/23 07:24:47;;;;;;;;;18.25;17.75;27.00;71.90;;;;;;5036306;28;8889;-64
2022/01/23 07:27:20;;;;;;;;;18.25;14.00;26.90;71.90;;;;;;5034628;28;8763;-64
2022/01/23 07:29:47;;;;;;;;;19.75;18.25;27.00;71.30;;;;;;5036292;28;9391;-64
2022/01/23 07:32:14;;;;;;;;;19.00;16.50;27.10;71.30;;;;;;5036011;28;8750;-64
2022/01/23 07:34:41;;;;;;;;;17.00;14.50;27.00;71.50;;;;;;5039220;28;8837;-71
2022/01/23 07:37:10;;;;;;;;;22.25;20.50;27.10;72.70;;;;;;5038721;28;8860;-71
2022/01/23 07:39:36;;;;;;;;;20.75;16.75;27.10;73.70;;;;;;5039551;28;8780;-71
2022/01/23 07:42:03;;;;;;;;;17.75;17.25;27.10;73.70;;;;;;5039483;28;9403;-71
2022/01/23 07:44:30;;;;;;;;;18.25;16.25;26.90;73.20;;;;;;5054631;28;8819;-71
2022/01/23 07:46:57;;;;;;;;;19.75;18.25;26.90;71.40;;;;;;5039390;28;8758;-72
2022/01/23 07:49:23;;;;;;;;;19.75;18.50;26.90;74.30;;;;;;5039631;28;8738;-72
2022/01/23 07:51:50;;;;;;;;;12.00;10.75;26.90;68.40;;;;;;5039728;28;8730;-71
2022/01/23 07:54:17;;;;;;;;;16.75;16.00;26.90;68.80;;;;;;5039535;28;8785;-72
2022/01/23 07:56:44;;;;;;;;;18.00;15.25;26.90;68.10;;;;;;5039109;28;8773;-72
2022/01/23 07:59:10;;;;;;;;;17.50;14.50;27.00;68.70;;;;;;5037857;28;8872;-72
2022/01/23 08:01:40;;;;;;;;;16.00;15.50;27.10;71.00;;;;;;5037592;28;9520;-72
2022/01/23 08:04:07;;;;;;;;;14.40;14.00;27.10;69.80;;;;;;5039924;28;8750;-72
2022/01/23 08:06:40;;;;;;;;;16.75;15.75;27.10;66.40;;;;;;5024990;28;8871;-72
2022/01/23 08:09:09;;;;;;;;;19.75;15.00;27.00;64.80;;;;;;5018383;28;8776;-72
2022/01/23 08:11:35;;;;;;;;;19.50;14.50;27.10;65.40;;;;;;5018052;28;8867;-72
2022/01/23 08:14:02;;;;;;;;;17.50;16.50;27.10;68.30;;;;;;5019379;28;8871;-72
2022/01/23 08:16:29;;;;;;;;;17.25;14.25;27.10;65.00;;;;;;5019216;28;8753;-72
2022/01/23 08:18:56;;;;;;;;;19.00;14.25;27.20;61.10;;;;;;5002764;28;8740;-72
2022/01/23 08:21:23;;;;;;;;;15.50;15.00;27.10;58.40;;;;;;5031726;28;8750;-72
2022/01/23 08:23:52;;;;;;;;;12.00;11.60;27.20;61.50;;;;;;5039110;28;8892;-72
2022/01/23 08:26:21;;;;;;;;;12.00;12.00;27.20;60.90;;;;;;5038226;28;8797;-71
2022/01/23 08:28:48;;;;;;;;;15.60;15.60;27.20;53.90;;;;;;5039089;28;8766;-72
2022/01/23 08:31:14;;;;;;;;;16.40;14.00;27.30;55.30;;;;;;5038164;28;8730;-72
2022/01/23 08:33:41;;;;;;;;;16.75;16.75;27.30;57.80;;;;;;5038805;28;8824;-71
2022/01/23 08:36:08;;;;;;;;;15.00;13.50;27.30;58.80;;;;;;5028050;28;8749;-72
2022/01/23 08:38:34;;;;;;;;;18.75;14.50;27.20;59.80;;;;;;5018636;28;8757;-72
2022/01/23 08:43:49;;;;;;;;;16.50;15.50;27.20;59.60;;;;;;5018184;28;8761;-72
2022/01/23 08:46:16;;;;;;;;;22.25;18.25;27.10;60.10;;;;;;5019411;28;8760;-72
2022/01/23 08:48:43;;;;;;;;;19.75;17.00;27.20;59.80;;;;;;5018292;28;8760;-72
2022/01/23 08:51:10;;;;;;;;;18.00;16.75;27.20;59.60;;;;;;5028141;28;8746;-72
2022/01/23 08:53:37;;;;;;;;;15.75;13.00;27.30;59.00;;;;;;5037828;28;8797;-72
2022/01/23 08:56:04;;;;;;;;;19.60;18.00;27.40;59.80;;;;;;5038629;28;8781;-72
2022/01/23 08:58:31;;;;;;;;;21.40;18.80;27.40;59.80;;;;;;5038167;28;8753;-72
2022/01/23 09:00:58;;;;;;;;;18.00;16.75;27.40;59.00;;;;;;5037645;28;8730;-72
2022/01/23 09:03:25;;;;;;;;;20.75;17.25;27.40;57.40;;;;;;5038013;28;8819;-72
2022/01/23 09:05:51;;;;;;;;;16.25;14.25;27.40;58.50;;;;;;5036951;28;8803;-72
2022/01/23 09:08:19;;;;;;;;;22.25;19.50;27.40;60.70;;;;;;5038058;28;8727;-71
2022/01/23 09:10:54;;;;;;;;;16.50;13.00;27.40;59.80;;;;;;5038490;28;8758;-72
2022/01/23 09:14:21;;;;;;;;;18.50;16.00;27.60;58.60;;;;;;5037077;28;8754;-72
2022/01/23 09:16:16;;;;;;;;;20.25;18.00;27.70;58.00;;;;;;5029787;28;8876;-72
2022/01/23 09:18:43;;;;;;;;;19.00;17.75;27.60;62.20;;;;;;5036332;28;8755;-72
2022/01/23 09:21:10;;;;;;;;;22.50;18.00;27.50;59.70;;;;;;5037952;28;8730;-72
2022/01/23 09:23:36;;;;;;;;;12.00;11.25;27.50;56.70;;;;;;5038125;28;8770;-72
2022/01/23 09:26:13;;;;;;;;;17.25;16.50;27.50;58.40;;;;;;5019832;28;8859;-72
2022/01/23 09:28:43;;;;;;;;;18.75;17.75;27.40;61.20;;;;;;5037339;28;8772;-71
2022/01/23 09:31:11;;;;;;;;;17.50;16.50;27.50;60.50;;;;;;5038246;28;8812;-72
2022/01/23 09:33:38;;;;;;;;;23.60;20.00;27.50;58.30;;;;;;5037046;28;9607;-72
2022/01/23 09:36:05;;;;;;;;;18.25;17.25;27.50;58.50;;;;;;5026529;28;8939;-73
2022/01/23 09:38:32;;;;;;;;;18.00;16.00;27.50;58.20;;;;;;5017381;28;8748;-72
2022/01/23 09:40:59;;;;;;;;;23.25;18.25;27.60;58.00;;;;;;5016538;28;8784;-72
2022/01/23 09:43:26;;;;;;;;;15.50;15.50;27.60;57.10;;;;;;5017441;28;8865;-71
2022/01/23 09:45:53;;;;;;;;;17.25;16.50;27.50;59.80;;;;;;5017915;28;8759;-72
2022/01/23 09:48:23;;;;;;;;;24.50;19.75;27.40;61.20;;;;;;5016213;28;8740;-71
2022/01/23 09:50:52;;;;;;;;;22.00;16.25;27.30;60.00;;;;;;5025397;28;8816;-72
2022/01/23 09:53:19;;;;;;;;;16.25;14.25;27.20;56.60;;;;;;5035867;28;8726;-71
2022/01/23 09:55:46;;;;;;;;;14.25;11.50;27.30;57.40;;;;;;5018864;28;8806;-72
2022/01/23 09:58:14;;;;;;;;;20.75;17.75;27.20;58.60;;;;;;5037862;28;8719;-72
2022/01/23 10:00:41;;;;;;;;;23.75;20.25;27.20;59.20;;;;;;5002876;28;8749;-73
2022/01/23 10:03:08;;;;;;;;;20.00;18.00;27.10;59.90;;;;;;5036966;28;8754;-72
2022/01/23 10:05:35;;;;;;;;;22.75;18.00;27.00;59.60;;;;;;5035386;28;8718;-72
2022/01/23 10:08:01;;;;;;;;;21.25;19.50;27.00;58.20;;;;;;5037400;28;8848;-72
2022/01/23 10:10:31;;;;;;;;;21.25;20.00;27.00;57.70;;;;;;5035465;28;8750;-72
2022/01/23 10:12:59;;;;;;;;;18.75;16.00;27.00;57.00;;;;;;5037787;28;8844;-72
2022/01/23 10:15:28;;;;;;;;;23.00;18.80;27.00;57.90;;;;;;5036504;28;8778;-72
2022/01/23 10:17:57;;;;;;;;;22.20;18.20;27.00;57.40;;;;;;5037731;28;8766;-72
2022/01/23 10:20:24;;;;;;;;;23.50;19.00;27.00;58.30;;;;;;5037064;28;8762;-72
2022/01/23 10:22:52;;;;;;;;;20.40;17.80;27.00;59.70;;;;;;5035791;28;8762;-72
2022/01/23 10:25:29;;;;;;;;;21.80;20.40;27.00;58.40;;;;;;5036064;28;8812;-72
2022/01/23 10:28:04;;;;;;;;;27.00;21.75;26.90;59.40;;;;;;5037502;28;8738;-72
2022/01/23 10:30:52;;;;;;;;;9.00;9.00;26.80;58.70;;;;;;5036414;28;8774;-72
2022/01/23 10:33:37;;;;;;;;;28.75;25.75;26.70;59.60;;;;;;5035182;28;8730;-71
2022/01/23 10:36:11;;;;;;;;;34.25;28.75;26.60;60.50;;;;;;5026535;28;8775;-72
2022/01/23 10:38:41;;;;;;;;;40.00;33.75;26.50;61.00;;;;;;5015406;28;8776;-72
2022/01/23 10:41:29;;;;;;;;;45.50;33.75;26.30;61.50;;;;;;5016599;28;8780;-72
2022/01/23 10:50:08;;;;;;;;;37.00;31.00;26.00;64.10;;;;;;5017410;28;8784;-72
2022/01/23 10:52:36;;;;;;;;;38.25;30.25;25.90;63.40;;;;;;5016548;28;8744;-72
2022/01/23 10:55:32;;;;;;;;;29.25;28.25;25.80;63.50;;;;;;5017243;28;8807;-72
2022/01/23 10:58:02;;;;;;;;;29.00;29.00;25.60;63.30;;;;;;5017470;28;9469;-72
2022/01/23 11:00:33;;;;;;;;;26.75;26.75;25.40;62.00;;;;;;5015301;28;8903;-72
2022/01/23 11:03:03;;;;;;;;;32.00;28.00;25.40;62.80;;;;;;5016511;28;8804;-72
2022/01/23 11:05:33;;;;;;;;;36.75;31.75;25.20;63.50;;;;;;5021525;28;8774;-72
2022/01/23 11:08:01;;;;;;;;;39.25;33.00;25.10;65.50;;;;;;5037874;28;8770;-72
2022/01/23 11:10:28;;;;;;;;;38.50;34.25;25.00;67.50;;;;;;5038812;28;8784;-71
2022/01/23 11:18:13;;;;;;;;;48.00;37.50;24.70;75.30;;;;;;5040675;28;9454;-72
2022/01/23 11:20:49;;;;;;;;;46.50;31.25;24.50;78.50;;;;;;5039727;28;9488;-71
2022/01/23 11:23:21;;;;;;;;;34.50;32.75;24.40;78.30;;;;;;5040822;28;8750;-72
2022/01/23 11:25:57;;;;;;;;;34.25;30.75;24.30;79.70;;;;;;5040020;28;8758;-72
2022/01/23 11:28:31;;;;;;;;;55.75;44.50;24.10;81.70;;;;;;5040587;28;8757;-71
2022/01/23 11:30:58;;;;;;;;;56.50;43.00;23.80;82.60;;;;;;5040625;28;8738;-72
2022/01/23 11:33:25;;;;;;;;;49.75;37.50;23.60;85.30;;;;;;5039555;28;8778;-71
2022/01/23 11:35:52;;;;;;;;;39.25;33.00;23.50;84.80;;;;;;5031298;28;8835;-71
2022/01/23 11:38:22;;;;;;;;;37.25;32.50;23.40;81.30;;;;;;5019756;28;8792;-70
2022/01/23 11:54:41;;;;;;;;;51.25;41.00;23.10;84.70;;;;;;5039147;28;8900;-71
2022/01/23 11:57:40;;;;;;;;;58.25;46.75;23.00;87.50;;;;;;5040101;28;8766;-71
2022/01/23 12:00:20;;;;;;;;;47.50;37.75;22.90;91.40;;;;;;5039713;28;8777;-71
2022/01/23 12:03:13;;;;;;;;;54.00;39.50;22.80;89.20;;;;;;5054913;28;8877;-71
2022/01/23 12:05:44;;;;;;;;;65.25;51.50;22.70;90.00;;;;;;5032268;28;8787;-70
2022/01/23 12:08:32;;;;;;;;;61.00;45.75;22.70;93.40;;;;;;5020010;28;8761;-71
2022/01/23 12:18:52;;;;;;;;;63.25;50.00;22.30;96.10;;;;;;5018444;28;8842;-70
2022/01/23 12:21:31;;;;;;;;;64.75;49.25;22.20;96.30;;;;;;5030941;28;8754;-70
2022/01/23 12:24:02;;;;;;;;;62.25;46.50;22.30;97.90;;;;;;5039669;28;9407;-71
2022/01/23 12:26:29;;;;;;;;;68.80;54.00;22.20;98.80;;;;;;5037993;28;8802;-71
2022/01/23 12:28:55;;;;;;;;;69.20;53.80;22.10;98.90;;;;;;5038165;28;8760;-70
2022/01/23 12:31:27;;;;;;;;;78.20;58.20;22.00;99.00;;;;;;5039254;28;8762;-70
2022/01/23 12:34:01;;;;;;;;;73.80;56.80;22.00;98.80;;;;;;5036883;28;8798;-70
2022/01/23 12:36:29;;;;;;;;;75.00;54.20;22.00;99.00;;;;;;5037174;28;8794;-70
2022/01/23 12:38:57;;;;;;;;;64.40;50.20;22.00;97.10;;;;;;5037390;28;8770;-71
2022/01/23 12:41:27;;;;;;;;;69.40;52.60;22.10;97.10;;;;;;5036953;28;9335;-70
2022/01/23 12:44:18;;;;;;;;;60.60;45.80;22.10;97.30;;;;;;5038813;28;8848;-71
2022/01/23 12:46:55;;;;;;;;;67.80;50.40;22.00;98.20;;;;;;5030730;28;8814;-70
2022/01/23 12:49:29;;;;;;;;;74.20;55.40;21.90;98.40;;;;;;5038926;28;8752;-70
2022/01/23 12:51:56;;;;;;;;;73.60;54.60;21.90;98.60;;;;;;5038550;28;8782;-71
2022/01/23 12:54:27;;;;;;;;;66.80;53.60;21.80;99.60;;;;;;5038168;28;8813;-70
2022/01/23 12:56:54;;;;;;;;;69.60;53.80;21.70;99.90;;;;;;5036755;28;9439;-70
2022/01/23 12:59:31;;;;;;;;;68.80;52.40;21.70;99.90;;;;;;5037977;28;9232;-70
2022/01/23 13:02:06;;;;;;;;;69.80;53.60;21.60;99.90;;;;;;5038384;28;8770;-70
2022/01/23 13:04:44;;;;;;;;;72.75;53.75;21.40;99.90;;;;;;5038231;28;8757;-70
2022/01/23 13:07:19;;;;;;;;;65.60;51.40;21.30;99.90;;;;;;5019624;28;8784;-71
2022/01/23 13:10:08;;;;;;;;;67.60;52.40;21.30;99.90;;;;;;5017203;28;8862;-71
2022/01/23 13:15:22;;;;;;;;;68.00;51.00;21.30;99.90;;;;;;5018077;28;8776;-71
2022/01/23 13:26:33;;;;;;;;;69.80;55.20;21.00;99.90;;;;;;5037975;28;8765;-71
2022/01/23 13:31:42;;;;;;;;;74.20;62.40;20.90;99.90;;;;;;5035595;28;8777;-70
2022/01/23 13:34:35;;;;;;;;;76.60;60.80;20.80;99.90;;;;;;5038022;28;8911;-71
2022/01/23 13:37:10;;;;;;;;;72.20;55.40;20.80;99.90;;;;;;5009515;28;8808;-71
2022/01/23 13:39:46;;;;;;;;;68.60;52.40;20.90;99.90;;;;;;5016064;28;8778;-70
2022/01/23 13:54:15;;;;;;;;;61.40;46.80;20.50;99.90;;;;;;5036489;28;8818;-70
2022/01/23 13:59:55;;;;;;;;;64.25;48.75;20.70;99.90;;;;;;5037156;28;8782;-70
2022/01/23 14:02:34;;;;;;;;;68.20;54.20;20.50;99.90;;;;;;5036763;28;8808;-70
2022/01/23 14:05:22;;;;;;;;;71.60;55.00;20.40;99.90;;;;;;5035772;28;8758;-70
2022/01/23 14:08:00;;;;;;;;;72.20;57.60;20.40;99.90;;;;;;5036859;28;8854;-70
2022/01/23 14:10:33;;;;;;;;;71.20;56.00;20.30;99.90;;;;;;5035913;28;8750;-70
2022/01/23 14:13:12;;;;;;;;;62.40;49.00;20.40;99.90;;;;;;5036679;28;8774;-70
2022/01/23 14:15:51;;;;;;;;;76.00;61.40;20.40;99.90;;;;;;5035994;28;9302;-70
2022/01/23 14:18:24;;;;;;;;;70.80;58.20;20.40;99.90;;;;;;5036993;28;8769;-69
2022/01/23 14:21:04;;;;;;;;;72.60;56.80;20.20;99.90;;;;;;5035857;28;8765;-71
2022/01/23 14:23:33;;;;;;;;;69.40;53.00;20.20;99.90;;;;;;5036920;28;8765;-71
2022/01/23 14:26:06;;;;;;;;;71.20;55.20;20.20;99.90;;;;;;5036781;28;8788;-71
2022/01/23 14:28:50;;;;;;;;;68.40;52.60;20.20;99.90;;;;;;5035938;28;8805;-70
2022/01/23 14:31:23;;;;;;;;;70.40;53.40;20.10;99.90;;;;;;5037059;28;8762;-69
2022/01/23 14:33:57;;;;;;;;;62.80;49.00;20.00;99.90;;;;;;5037154;28;8802;-70
2022/01/23 14:36:26;;;;;;;;;60.60;47.80;20.10;99.90;;;;;;5036447;28;8778;-70
2022/01/23 14:38:56;;;;;;;;;66.60;49.60;20.10;99.90;;;;;;5036805;28;8747;-71
2022/01/23 14:41:31;;;;;;;;;69.80;51.20;20.00;99.90;;;;;;5036375;28;8766;-71
2022/01/23 14:43:57;;;;;;;;;68.40;51.00;20.00;99.90;;;;;;5039960;28;8762;-70
2022/01/23 14:46:24;;;;;;;;;73.60;53.20;19.90;99.90;;;;;;5040636;28;8766;-70
2022/01/23 14:48:58;;;;;;;;;71.40;52.80;19.80;99.90;;;;;;5039742;28;8738;-70
2022/01/23 14:51:26;;;;;;;;;67.20;52.00;19.70;99.90;;;;;;5027654;28;9445;-70
2022/01/23 14:53:53;;;;;;;;;67.60;50.60;19.70;99.90;;;;;;5019580;28;8785;-70
2022/01/23 14:56:20;;;;;;;;;69.60;52.20;19.70;99.90;;;;;;5019783;28;8796;-70
2022/01/23 14:58:47;;;;;;;;;69.20;51.20;19.70;99.90;;;;;;5003022;28;8890;-70
2022/01/23 15:01:16;;;;;;;;;66.60;48.80;19.60;99.90;;;;;;5020933;28;8749;-70
2022/01/23 15:03:53;;;;;;;;;71.40;52.80;19.60;99.90;;;;;;5020650;28;8749;-70
2022/01/23 15:06:23;;;;;;;;;74.20;57.80;19.50;99.90;;;;;;5032058;28;8784;-70
2022/01/23 15:08:50;;;;;;;;;72.80;54.20;19.40;99.90;;;;;;5039218;28;8746;-70
2022/01/23 15:11:20;;;;;;;;;67.20;52.60;19.40;99.90;;;;;;5038986;28;9071;-70
2022/01/23 15:13:46;;;;;;;;;68.20;55.60;19.50;99.90;;;;;;5039768;28;8758;-71
2022/01/23 15:16:13;;;;;;;;;75.80;55.40;19.40;99.90;;;;;;5040877;28;8742;-71
2022/01/23 15:18:40;;;;;;;;;76.40;62.00;19.50;99.90;;;;;;5040084;28;8734;-70
2022/01/23 15:21:06;;;;;;;;;72.80;57.60;19.60;99.90;;;;;;5030096;28;8795;-71
2022/01/23 15:23:33;;;;;;;;;70.20;53.40;19.60;99.90;;;;;;5019950;28;8753;-71
2022/01/23 15:26:00;;;;;;;;;76.60;57.40;19.50;99.90;;;;;;5020201;28;8847;-70
2022/01/23 15:28:26;;;;;;;;;74.20;57.80;19.60;99.90;;;;;;5019651;28;8867;-70
2022/01/23 15:30:53;;;;;;;;;74.20;55.80;19.40;99.90;;;;;;5020760;28;8855;-70
2022/01/23 15:33:20;;;;;;;;;67.40;51.00;19.30;99.90;;;;;;5018949;28;8764;-70
2022/01/23 15:35:47;;;;;;;;;76.20;55.80;19.20;99.90;;;;;;5027103;28;8770;-70
2022/01/23 15:38:19;;;;;;;;;68.40;52.40;19.20;99.90;;;;;;5039868;28;9447;-70
2022/01/23 15:40:46;;;;;;;;;70.80;53.00;19.20;99.90;;;;;;5039576;28;9971;-70
2022/01/23 15:43:13;;;;;;;;;71.60;54.60;19.20;99.90;;;;;;5040020;28;8756;-70
2022/01/23 15:45:41;;;;;;;;;73.00;56.00;19.20;99.90;;;;;;5038141;28;8828;-70
2022/01/23 15:48:10;;;;;;;;;70.25;51.00;19.00;99.90;;;;;;5037872;28;8769;-70
2022/01/23 15:50:37;;;;;;;;;69.00;53.20;19.00;99.90;;;;;;5031113;28;9410;-70
2022/01/23 15:53:04;;;;;;;;;70.40;52.40;19.10;99.90;;;;;;5019206;28;8777;-70
2022/01/23 15:55:30;;;;;;;;;73.00;54.40;19.00;99.90;;;;;;5018304;28;8779;-69
2022/01/23 15:57:57;;;;;;;;;75.00;55.80;18.90;99.90;;;;;;5020122;28;8745;-70
2022/01/23 16:00:24;;;;;;;;;77.20;59.40;18.90;99.90;;;;;;5019313;28;8760;-69
2022/01/23 16:02:51;;;;;;;;;74.80;57.20;19.00;99.90;;;;;;5018409;28;8788;-69
2022/01/23 16:05:18;;;;;;;;;71.20;53.40;19.10;99.90;;;;;;5023036;28;8761;-69
2022/01/23 16:07:45;;;;;;;;;65.80;48.60;19.10;99.90;;;;;;5039218;28;9568;-69